sensor_id;sensor_type;location;lat;lon;timestamp;temperature;humidity
27384;DHT22;14851;51.166;4.760;2023-04-10T00:01:06;9.60;99.90
27384;DHT22;14851;51.166;4.760;2023-04-10T00:03:32;9.60;99.90
27384;DHT22;14851;51.166;4.760;2023-04-10T00:05:58;9.60;99.90
27384;DHT22;14851;51.166;4.760;2023-04-10T00:08:24;9.70;99.90
27384;DHT22;14851;51.166;4.760;2023-04-10T00:10:51;9.70;99.90
27384;DHT22;14851;51.166;4.760;2023-04-10T00:13:19;9.70;99.90
27384;DHT22;14851;51.166;4.760;2023-04-10T00:15:45;9.60;99.90
27384;DHT22;14851;51.166;4.760;2023-04-10T00:18:11;9.60;99.90
27384;DHT22;14851;51.166;4.760;2023-04-10T00:20:37;9.60;99.90
27384;DHT22;14851;51.166;4.760;2023-04-10T00:23:03;9.60;99.90
27384;DHT22;14851;51.166;4.760;2023-04-10T00:25:28;9.50;99.90
27384;DHT22;14851;51.166;4.760;2023-04-10T00:27:54;9.50;99.90
27384;DHT22;14851;51.166;4.760;2023-04-10T00:30:20;9.50;99.90
27384;DHT22;14851;51.166;4.760;2023-04-10T00:32:49;9.40;99.90
27384;DHT22;14851;51.166;4.760;2023-04-10T00:35:14;9.40;99.90
27384;DHT22;14851;51.166;4.760;2023-04-10T00:37:42;9.40;99.90
27384;DHT22;14851;51.166;4.760;2023-04-10T00:40:08;9.30;99.90
27384;DHT22;14851;51.166;4.760;2023-04-10T00:42:34;9.30;99.90
27384;DHT22;14851;51.166;4.760;2023-04-10T00:45:00;9.20;99.90
27384;DHT22;14851;51.166;4.760;2023-04-10T00:47:27;9.20;99.90
27384;DHT22;14851;51.166;4.760;2023-04-10T00:49:54;9.10;99.90
27384;DHT22;14851;51.166;4.760;2023-04-10T00:52:20;9.10;99.90
27384;DHT22;14851;51.166;4.760;2023-04-10T00:54:46;9.10;99.90
27384;DHT22;14851;51.166;4.760;2023-04-10T00:57:12;9.10;99.90
27384;DHT22;14851;51.166;4.760;2023-04-10T00:59:38;9.00;99.90
27384;DHT22;14851;51.166;4.760;2023-04-10T01:02:06;9.00;99.90
27384;DHT22;14851;51.166;4.760;2023-04-10T01:04:34;9.00;99.90
27384;DHT22;14851;51.166;4.760;2023-04-10T01:15:22;8.80;99.90
27384;DHT22;14851;51.166;4.760;2023-04-10T01:18:14;8.80;99.90
27384;DHT22;14851;51.166;4.760;2023-04-10T01:20:42;8.80;99.90
27384;DHT22;14851;51.166;4.760;2023-04-10T01:25:56;8.80;99.90
27384;DHT22;14851;51.166;4.760;2023-04-10T01:31:36;8.80;99.90
27384;DHT22;14851;51.166;4.760;2023-04-10T01:34:14;8.80;99.90
27384;DHT22;14851;51.166;4.760;2023-04-10T01:36:54;8.80;99.90
27384;DHT22;14851;51.166;4.760;2023-04-10T01:39:21;8.80;99.90
27384;DHT22;14851;51.166;4.760;2023-04-10T01:41:51;8.80;99.90
27384;DHT22;14851;51.166;4.760;2023-04-10T01:44:31;8.80;99.90
27384;DHT22;14851;51.166;4.760;2023-04-10T01:46:59;8.80;99.90
27384;DHT22;14851;51.166;4.760;2023-04-10T01:49:27;8.80;99.90
27384;DHT22;14851;51.166;4.760;2023-04-10T01:52:01;8.80;99.90
27384;DHT22;14851;51.166;4.760;2023-04-10T01:54:30;8.70;99.90
27384;DHT22;14851;51.166;4.760;2023-04-10T01:56:58;8.70;99.90
27384;DHT22;14851;51.166;4.760;2023-04-10T01:59:27;8.70;99.90
27384;DHT22;14851;51.166;4.760;2023-04-10T02:01:57;8.70;99.90
27384;DHT22;14851;51.166;4.760;2023-04-10T02:04:22;8.60;99.90
27384;DHT22;14851;51.166;4.760;2023-04-10T02:09:24;8.50;99.90
27384;DHT22;14851;51.166;4.760;2023-04-10T02:12:05;8.50;99.90
27384;DHT22;14851;51.166;4.760;2023-04-10T02:14:37;8.40;99.90
27384;DHT22;14851;51.166;4.760;2023-04-10T02:17:03;8.50;99.90
27384;DHT22;14851;51.166;4.760;2023-04-10T02:19:31;8.40;99.90
27384;DHT22;14851;51.166;4.760;2023-04-10T02:21:57;8.30;99.90
27384;DHT22;14851;51.166;4.760;2023-04-10T02:24:25;8.30;99.90
27384;DHT22;14851;51.166;4.760;2023-04-10T02:26:52;8.30;99.90
27384;DHT22;14851;51.166;4.760;2023-04-10T02:29:18;8.20;99.90
27384;DHT22;14851;51.166;4.760;2023-04-10T02:31:45;8.20;99.90
27384;DHT22;14851;51.166;4.760;2023-04-10T02:34:12;8.20;99.90
27384;DHT22;14851;51.166;4.760;2023-04-10T02:36:39;8.20;99.90
27384;DHT22;14851;51.166;4.760;2023-04-10T02:39:06;8.20;99.90
27384;DHT22;14851;51.166;4.760;2023-04-10T02:41:37;8.10;99.90
27384;DHT22;14851;51.166;4.760;2023-04-10T02:44:05;8.10;99.90
27384;DHT22;14851;51.166;4.760;2023-04-10T02:46:31;8.10;99.90
27384;DHT22;14851;51.166;4.760;2023-04-10T02:48:57;8.10;99.90
27384;DHT22;14851;51.166;4.760;2023-04-10T02:51:23;8.00;99.90
27384;DHT22;14851;51.166;4.760;2023-04-10T02:53:52;8.00;99.90
27384;DHT22;14851;51.166;4.760;2023-04-10T02:56:26;8.00;99.90
27384;DHT22;14851;51.166;4.760;2023-04-10T02:58:52;8.00;99.90
27384;DHT22;14851;51.166;4.760;2023-04-10T03:01:18;8.00;99.90
27384;DHT22;14851;51.166;4.760;2023-04-10T03:03:46;7.90;99.90
27384;DHT22;14851;51.166;4.760;2023-04-10T03:06:17;7.90;99.90
27384;DHT22;14851;51.166;4.760;2023-04-10T03:08:45;7.90;99.90
27384;DHT22;14851;51.166;4.760;2023-04-10T03:11:11;7.90;99.90
27384;DHT22;14851;51.166;4.760;2023-04-10T03:13:40;7.80;99.90
27384;DHT22;14851;51.166;4.760;2023-04-10T03:16:06;7.80;99.90
27384;DHT22;14851;51.166;4.760;2023-04-10T03:18:33;7.80;99.90
27384;DHT22;14851;51.166;4.760;2023-04-10T03:21:01;7.70;99.90
27384;DHT22;14851;51.166;4.760;2023-04-10T03:23:27;7.80;99.90
27384;DHT22;14851;51.166;4.760;2023-04-10T03:25:53;7.70;99.90
27384;DHT22;14851;51.166;4.760;2023-04-10T03:28:22;7.70;99.90
27384;DHT22;14851;51.166;4.760;2023-04-10T03:30:51;7.70;99.90
27384;DHT22;14851;51.166;4.760;2023-04-10T03:33:17;7.70;99.90
27384;DHT22;14851;51.166;4.760;2023-04-10T03:35:44;7.70;99.90
27384;DHT22;14851;51.166;4.760;2023-04-10T03:38:11;7.70;99.90
27384;DHT22;14851;51.166;4.760;2023-04-10T03:40:37;7.70;99.90
27384;DHT22;14851;51.166;4.760;2023-04-10T03:43:05;7.70;99.90
27384;DHT22;14851;51.166;4.760;2023-04-10T03:45:33;7.70;99.90
27384;DHT22;14851;51.166;4.760;2023-04-10T03:47:59;7.60;99.90
27384;DHT22;14851;51.166;4.760;2023-04-10T03:50:27;7.60;99.90
27384;DHT22;14851;51.166;4.760;2023-04-10T03:52:57;7.60;99.90
27384;DHT22;14851;51.166;4.760;2023-04-10T03:55:24;7.60;99.90
27384;DHT22;14851;51.166;4.760;2023-04-10T03:57:51;7.60;99.90
27384;DHT22;14851;51.166;4.760;2023-04-10T04:00:27;7.60;99.90
27384;DHT22;14851;51.166;4.760;2023-04-10T04:03:00;7.60;99.90
27384;DHT22;14851;51.166;4.760;2023-04-10T04:05:47;7.60;99.90
27384;DHT22;14851;51.166;4.760;2023-04-10T04:08:43;7.60;99.90
27384;DHT22;14851;51.166;4.760;2023-04-10T04:11:19;7.60;99.90
27384;DHT22;14851;51.166;4.760;2023-04-10T04:14:01;7.70;99.90
27384;DHT22;14851;51.166;4.760;2023-04-10T04:17:03;7.70;99.90
27384;DHT22;14851;51.166;4.760;2023-04-10T04:20:05;7.70;99.90
27384;DHT22;14851;51.166;4.760;2023-04-10T04:23:01;7.70;99.90
27384;DHT22;14851;51.166;4.760;2023-04-10T04:25:32;7.70;99.90
27384;DHT22;14851;51.166;4.760;2023-04-10T04:28:07;7.80;99.90
27384;DHT22;14851;51.166;4.760;2023-04-10T04:30:34;7.80;99.90
27384;DHT22;14851;51.166;4.760;2023-04-10T04:33:19;7.80;99.90
27384;DHT22;14851;51.166;4.760;2023-04-10T04:35:56;7.70;99.90
27384;DHT22;14851;51.166;4.760;2023-04-10T04:39:01;7.70;99.90
27384;DHT22;14851;51.166;4.760;2023-04-10T04:41:52;7.80;99.90
27384;DHT22;14851;51.166;4.760;2023-04-10T04:44:41;7.80;99.90
27384;DHT22;14851;51.166;4.760;2023-04-10T04:47:39;7.70;99.90
27384;DHT22;14851;51.166;4.760;2023-04-10T04:50:34;7.70;99.90
27384;DHT22;14851;51.166;4.760;2023-04-10T04:53:15;7.80;99.90
27384;DHT22;14851;51.166;4.760;2023-04-10T04:56:01;7.80;99.90
27384;DHT22;14851;51.166;4.760;2023-04-10T04:58:50;7.70;99.90
27384;DHT22;14851;51.166;4.760;2023-04-10T05:01:31;7.80;99.90
27384;DHT22;14851;51.166;4.760;2023-04-10T05:04:23;7.80;99.90
27384;DHT22;14851;51.166;4.760;2023-04-10T05:07:24;7.80;99.90
27384;DHT22;14851;51.166;4.760;2023-04-10T05:10:14;7.80;99.90
27384;DHT22;14851;51.166;4.760;2023-04-10T05:13:18;7.90;99.90
27384;DHT22;14851;51.166;4.760;2023-04-10T05:16:11;7.90;99.90
27384;DHT22;14851;51.166;4.760;2023-04-10T05:18:59;7.90;99.90
27384;DHT22;14851;51.166;4.760;2023-04-10T05:21:44;7.90;99.90
27384;DHT22;14851;51.166;4.760;2023-04-10T05:24:31;7.90;99.90
27384;DHT22;14851;51.166;4.760;2023-04-10T05:27:35;7.90;99.90
27384;DHT22;14851;51.166;4.760;2023-04-10T05:30:22;7.90;99.90
27384;DHT22;14851;51.166;4.760;2023-04-10T05:33:14;7.90;99.90
27384;DHT22;14851;51.166;4.760;2023-04-10T05:36:01;7.90;99.90
27384;DHT22;14851;51.166;4.760;2023-04-10T05:38:37;8.00;99.90
27384;DHT22;14851;51.166;4.760;2023-04-10T05:41:14;8.00;99.90
27384;DHT22;14851;51.166;4.760;2023-04-10T05:44:00;8.00;99.90
27384;DHT22;14851;51.166;4.760;2023-04-10T05:46:47;8.00;99.90
27384;DHT22;14851;51.166;4.760;2023-04-10T05:49:32;8.00;99.90
27384;DHT22;14851;51.166;4.760;2023-04-10T05:52:20;8.00;99.90
27384;DHT22;14851;51.166;4.760;2023-04-10T05:54:49;8.10;99.90
27384;DHT22;14851;51.166;4.760;2023-04-10T05:57:34;8.10;99.90
27384;DHT22;14851;51.166;4.760;2023-04-10T06:00:23;8.10;99.90
27384;DHT22;14851;51.166;4.760;2023-04-10T06:03:08;8.10;99.90
27384;DHT22;14851;51.166;4.760;2023-04-10T06:05:45;8.20;99.90
27384;DHT22;14851;51.166;4.760;2023-04-10T06:08:11;8.20;99.90
27384;DHT22;14851;51.166;4.760;2023-04-10T06:10:37;8.20;99.90
27384;DHT22;14851;51.166;4.760;2023-04-10T06:13:03;8.20;99.90
27384;DHT22;14851;51.166;4.760;2023-04-10T06:15:30;8.30;99.90
27384;DHT22;14851;51.166;4.760;2023-04-10T06:17:56;8.30;99.90
27384;DHT22;14851;51.166;4.760;2023-04-10T06:20:29;8.30;99.90
27384;DHT22;14851;51.166;4.760;2023-04-10T06:22:55;8.40;99.90
27384;DHT22;14851;51.166;4.760;2023-04-10T06:25:21;8.40;99.90
27384;DHT22;14851;51.166;4.760;2023-04-10T06:27:47;8.40;99.90
27384;DHT22;14851;51.166;4.760;2023-04-10T06:30:12;8.40;99.90
27384;DHT22;14851;51.166;4.760;2023-04-10T06:32:39;8.50;99.90
27384;DHT22;14851;51.166;4.760;2023-04-10T06:35:05;8.50;99.90
27384;DHT22;14851;51.166;4.760;2023-04-10T06:37:32;8.50;99.90
27384;DHT22;14851;51.166;4.760;2023-04-10T06:40:06;8.50;99.90
27384;DHT22;14851;51.166;4.760;2023-04-10T06:42:33;8.60;99.90
27384;DHT22;14851;51.166;4.760;2023-04-10T06:45:07;8.60;99.90
27384;DHT22;14851;51.166;4.760;2023-04-10T06:47:33;8.60;99.90
27384;DHT22;14851;51.166;4.760;2023-04-10T06:49:59;8.60;99.90
27384;DHT22;14851;51.166;4.760;2023-04-10T06:52:25;8.70;99.90
27384;DHT22;14851;51.166;4.760;2023-04-10T06:54:53;8.60;99.90
27384;DHT22;14851;51.166;4.760;2023-04-10T06:57:19;8.70;99.90
27384;DHT22;14851;51.166;4.760;2023-04-10T06:59:44;8.70;99.90
27384;DHT22;14851;51.166;4.760;2023-04-10T07:02:12;8.80;99.90
27384;DHT22;14851;51.166;4.760;2023-04-10T07:04:38;8.80;99.90
27384;DHT22;14851;51.166;4.760;2023-04-10T07:07:04;8.90;99.90
27384;DHT22;14851;51.166;4.760;2023-04-10T07:09:34;8.90;99.90
27384;DHT22;14851;51.166;4.760;2023-04-10T07:12:00;8.90;99.90
27384;DHT22;14851;51.166;4.760;2023-04-10T07:14:26;9.00;99.90
27384;DHT22;14851;51.166;4.760;2023-04-10T07:16:52;9.00;99.90
27384;DHT22;14851;51.166;4.760;2023-04-10T07:19:20;9.00;99.90
27384;DHT22;14851;51.166;4.760;2023-04-10T07:21:49;9.10;99.90
27384;DHT22;14851;51.166;4.760;2023-04-10T07:24:18;9.10;99.90
27384;DHT22;14851;51.166;4.760;2023-04-10T07:26:44;9.20;99.90
27384;DHT22;14851;51.166;4.760;2023-04-10T07:29:11;9.20;99.90
27384;DHT22;14851;51.166;4.760;2023-04-10T07:31:38;9.30;99.90
27384;DHT22;14851;51.166;4.760;2023-04-10T07:34:04;9.40;99.90
27384;DHT22;14851;51.166;4.760;2023-04-10T07:36:31;9.40;99.90
27384;DHT22;14851;51.166;4.760;2023-04-10T07:39:01;9.50;99.90
27384;DHT22;14851;51.166;4.760;2023-04-10T07:41:29;9.50;99.90
27384;DHT22;14851;51.166;4.760;2023-04-10T07:43:55;9.60;99.90
27384;DHT22;14851;51.166;4.760;2023-04-10T07:46:21;9.60;99.90
27384;DHT22;14851;51.166;4.760;2023-04-10T07:48:47;9.70;99.90
27384;DHT22;14851;51.166;4.760;2023-04-10T07:51:14;9.70;99.90
27384;DHT22;14851;51.166;4.760;2023-04-10T07:53:40;9.70;99.90
27384;DHT22;14851;51.166;4.760;2023-04-10T07:56:13;9.70;99.90
27384;DHT22;14851;51.166;4.760;2023-04-10T07:58:44;9.80;99.90
27384;DHT22;14851;51.166;4.760;2023-04-10T08:01:11;9.80;99.90
27384;DHT22;14851;51.166;4.760;2023-04-10T08:03:44;9.80;99.90
27384;DHT22;14851;51.166;4.760;2023-04-10T08:06:11;9.90;99.90
27384;DHT22;14851;51.166;4.760;2023-04-10T08:08:40;9.90;99.90
27384;DHT22;14851;51.166;4.760;2023-04-10T08:11:26;10.00;99.90
27384;DHT22;14851;51.166;4.760;2023-04-10T08:13:55;10.00;99.90
27384;DHT22;14851;51.166;4.760;2023-04-10T08:16:23;10.00;99.90
27384;DHT22;14851;51.166;4.760;2023-04-10T08:18:51;10.00;99.90
27384;DHT22;14851;51.166;4.760;2023-04-10T08:21:21;10.10;99.90
27384;DHT22;14851;51.166;4.760;2023-04-10T08:23:49;10.20;99.90
27384;DHT22;14851;51.166;4.760;2023-04-10T08:26:15;10.20;99.90
27384;DHT22;14851;51.166;4.760;2023-04-10T08:28:42;10.30;99.90
27384;DHT22;14851;51.166;4.760;2023-04-10T08:31:12;10.30;99.90
27384;DHT22;14851;51.166;4.760;2023-04-10T08:33:38;10.40;99.90
27384;DHT22;14851;51.166;4.760;2023-04-10T08:36:04;10.40;99.90
27384;DHT22;14851;51.166;4.760;2023-04-10T08:38:31;10.50;99.90
27384;DHT22;14851;51.166;4.760;2023-04-10T08:40:59;10.60;99.90
27384;DHT22;14851;51.166;4.760;2023-04-10T08:43:27;10.60;99.90
27384;DHT22;14851;51.166;4.760;2023-04-10T08:45:55;10.70;99.90
27384;DHT22;14851;51.166;4.760;2023-04-10T08:48:25;10.70;99.90
27384;DHT22;14851;51.166;4.760;2023-04-10T08:50:55;10.80;99.90
27384;DHT22;14851;51.166;4.760;2023-04-10T08:53:24;10.80;99.90
27384;DHT22;14851;51.166;4.760;2023-04-10T08:55:54;10.90;99.90
27384;DHT22;14851;51.166;4.760;2023-04-10T08:58:21;10.90;99.90
27384;DHT22;14851;51.166;4.760;2023-04-10T09:00:48;11.00;99.90
27384;DHT22;14851;51.166;4.760;2023-04-10T09:03:16;11.00;99.90
27384;DHT22;14851;51.166;4.760;2023-04-10T09:05:44;11.10;99.90
27384;DHT22;14851;51.166;4.760;2023-04-10T09:08:10;11.10;99.90
27384;DHT22;14851;51.166;4.760;2023-04-10T09:10:41;11.20;99.90
27384;DHT22;14851;51.166;4.760;2023-04-10T09:13:07;11.20;99.90
27384;DHT22;14851;51.166;4.760;2023-04-10T09:15:55;11.20;99.90
27384;DHT22;14851;51.166;4.760;2023-04-10T09:18:22;11.30;99.90
27384;DHT22;14851;51.166;4.760;2023-04-10T09:21:06;11.20;99.90
27384;DHT22;14851;51.166;4.760;2023-04-10T09:23:33;11.30;99.90
27384;DHT22;14851;51.166;4.760;2023-04-10T09:25:59;11.40;99.90
27384;DHT22;14851;51.166;4.760;2023-04-10T09:28:27;11.40;99.90
27384;DHT22;14851;51.166;4.760;2023-04-10T09:30:53;11.50;99.90
27384;DHT22;14851;51.166;4.760;2023-04-10T09:33:26;11.50;99.90
27384;DHT22;14851;51.166;4.760;2023-04-10T09:35:53;11.60;99.90
27384;DHT22;14851;51.166;4.760;2023-04-10T09:38:22;11.70;99.90
27384;DHT22;14851;51.166;4.760;2023-04-10T09:40:48;11.70;99.90
27384;DHT22;14851;51.166;4.760;2023-04-10T09:45:48;11.90;99.90
27384;DHT22;14851;51.166;4.760;2023-04-10T09:48:18;12.00;99.90
27384;DHT22;14851;51.166;4.760;2023-04-10T09:50:44;12.00;99.90
27384;DHT22;14851;51.166;4.760;2023-04-10T09:53:15;12.00;99.90
27384;DHT22;14851;51.166;4.760;2023-04-10T09:55:49;12.10;99.90
27384;DHT22;14851;51.166;4.760;2023-04-10T09:58:16;12.10;99.90
27384;DHT22;14851;51.166;4.760;2023-04-10T10:00:47;12.20;99.90
27384;DHT22;14851;51.166;4.760;2023-04-10T10:03:18;12.20;99.90
27384;DHT22;14851;51.166;4.760;2023-04-10T10:05:49;12.30;99.90
27384;DHT22;14851;51.166;4.760;2023-04-10T10:08:15;12.40;99.90
27384;DHT22;14851;51.166;4.760;2023-04-10T10:10:53;12.50;99.90
27384;DHT22;14851;51.166;4.760;2023-04-10T10:13:37;12.50;99.90
27384;DHT22;14851;51.166;4.760;2023-04-10T10:16:31;12.60;99.90
27384;DHT22;14851;51.166;4.760;2023-04-10T10:19:15;12.70;99.90
27384;DHT22;14851;51.166;4.760;2023-04-10T10:21:46;12.70;99.90
27384;DHT22;14851;51.166;4.760;2023-04-10T10:24:12;12.80;99.90
27384;DHT22;14851;51.166;4.760;2023-04-10T10:26:42;12.80;99.90
27384;DHT22;14851;51.166;4.760;2023-04-10T10:29:10;12.90;99.90
27384;DHT22;14851;51.166;4.760;2023-04-10T10:31:37;12.90;99.90
27384;DHT22;14851;51.166;4.760;2023-04-10T10:34:04;13.00;99.90
27384;DHT22;14851;51.166;4.760;2023-04-10T10:36:34;13.10;99.90
27384;DHT22;14851;51.166;4.760;2023-04-10T10:47:26;13.40;99.90
27384;DHT22;14851;51.166;4.760;2023-04-10T10:50:01;13.40;99.90
27384;DHT22;14851;51.166;4.760;2023-04-10T10:52:47;13.50;99.90
27384;DHT22;14851;51.166;4.760;2023-04-10T10:57:59;13.70;99.90
27384;DHT22;14851;51.166;4.760;2023-04-10T11:06:00;13.90;99.90
27384;DHT22;14851;51.166;4.760;2023-04-10T11:11:05;14.10;99.90
27384;DHT22;14851;51.166;4.760;2023-04-10T11:13:39;14.10;99.90
27384;DHT22;14851;51.166;4.760;2023-04-10T11:16:10;14.20;99.90
27384;DHT22;14851;51.166;4.760;2023-04-10T11:21:18;14.20;99.90
27384;DHT22;14851;51.166;4.760;2023-04-10T11:29:05;14.50;99.90
27384;DHT22;14851;51.166;4.760;2023-04-10T11:32:04;14.60;99.90
27384;DHT22;14851;51.166;4.760;2023-04-10T11:34:30;14.60;99.90
27384;DHT22;14851;51.166;4.760;2023-04-10T11:37:02;14.70;99.90
27384;DHT22;14851;51.166;4.760;2023-04-10T11:39:29;14.70;99.90
27384;DHT22;14851;51.166;4.760;2023-04-10T11:41:55;14.80;99.90
27384;DHT22;14851;51.166;4.760;2023-04-10T11:44:31;14.90;99.90
27384;DHT22;14851;51.166;4.760;2023-04-10T11:46:57;15.00;99.90
27384;DHT22;14851;51.166;4.760;2023-04-10T11:49:26;15.00;99.90
27384;DHT22;14851;51.166;4.760;2023-04-10T11:51:56;15.00;99.90
27384;DHT22;14851;51.166;4.760;2023-04-10T11:54:24;15.10;99.90
27384;DHT22;14851;51.166;4.760;2023-04-10T11:59:28;15.30;99.90
27384;DHT22;14851;51.166;4.760;2023-04-10T12:02:09;15.30;99.90
27384;DHT22;14851;51.166;4.760;2023-04-10T12:04:37;15.40;99.90
27384;DHT22;14851;51.166;4.760;2023-04-10T12:07:05;15.40;99.90
27384;DHT22;14851;51.166;4.760;2023-04-10T12:09:34;15.40;99.90
27384;DHT22;14851;51.166;4.760;2023-04-10T12:12:07;15.50;99.90
27384;DHT22;14851;51.166;4.760;2023-04-10T12:14:36;15.50;99.90
27384;DHT22;14851;51.166;4.760;2023-04-10T12:17:04;15.40;99.90
27384;DHT22;14851;51.166;4.760;2023-04-10T12:19:32;15.50;99.90
27384;DHT22;14851;51.166;4.760;2023-04-10T12:22:00;15.60;99.90
27384;DHT22;14851;51.166;4.760;2023-04-10T12:24:47;15.50;99.90
27384;DHT22;14851;51.166;4.760;2023-04-10T12:27:17;15.50;99.90
27384;DHT22;14851;51.166;4.760;2023-04-10T12:29:48;15.60;99.90
27384;DHT22;14851;51.166;4.760;2023-04-10T12:32:18;15.50;99.90
27384;DHT22;14851;51.166;4.760;2023-04-10T12:34:55;15.50;99.90
27384;DHT22;14851;51.166;4.760;2023-04-10T12:37:46;15.60;99.90
27384;DHT22;14851;51.166;4.760;2023-04-10T12:40:13;15.70;99.90
27384;DHT22;14851;51.166;4.760;2023-04-10T12:42:39;15.80;99.90
27384;DHT22;14851;51.166;4.760;2023-04-10T12:45:09;15.80;99.90
27384;DHT22;14851;51.166;4.760;2023-04-10T12:47:45;15.80;99.90
27384;DHT22;14851;51.166;4.760;2023-04-10T12:50:16;15.80;99.90
27384;DHT22;14851;51.166;4.760;2023-04-10T12:52:44;15.80;99.90
27384;DHT22;14851;51.166;4.760;2023-04-10T12:55:16;15.70;99.90
27384;DHT22;14851;51.166;4.760;2023-04-10T12:57:48;15.70;99.90
27384;DHT22;14851;51.166;4.760;2023-04-10T13:00:18;15.60;99.90
27384;DHT22;14851;51.166;4.760;2023-04-10T13:02:45;15.60;99.90
27384;DHT22;14851;51.166;4.760;2023-04-10T13:05:11;15.50;99.90
27384;DHT22;14851;51.166;4.760;2023-04-10T13:07:40;15.60;99.90
27384;DHT22;14851;51.166;4.760;2023-04-10T13:10:08;15.60;99.90
27384;DHT22;14851;51.166;4.760;2023-04-10T13:12:34;15.50;99.90
27384;DHT22;14851;51.166;4.760;2023-04-10T13:15:02;15.50;99.90
27384;DHT22;14851;51.166;4.760;2023-04-10T13:17:28;15.60;99.90
27384;DHT22;14851;51.166;4.760;2023-04-10T13:19:55;15.50;99.90
27384;DHT22;14851;51.166;4.760;2023-04-10T13:22:21;15.50;99.90
27384;DHT22;14851;51.166;4.760;2023-04-10T13:24:47;15.50;99.90
27384;DHT22;14851;51.166;4.760;2023-04-10T13:27:13;15.50;99.90
27384;DHT22;14851;51.166;4.760;2023-04-10T13:29:42;15.50;99.90
27384;DHT22;14851;51.166;4.760;2023-04-10T13:32:08;15.60;99.90
27384;DHT22;14851;51.166;4.760;2023-04-10T13:34:34;15.70;99.90
27384;DHT22;14851;51.166;4.760;2023-04-10T13:37:02;15.70;99.90
27384;DHT22;14851;51.166;4.760;2023-04-10T13:39:29;15.60;99.90
27384;DHT22;14851;51.166;4.760;2023-04-10T13:41:56;15.70;99.90
27384;DHT22;14851;51.166;4.760;2023-04-10T13:44:22;15.70;99.90
27384;DHT22;14851;51.166;4.760;2023-04-10T13:46:48;15.70;99.90
27384;DHT22;14851;51.166;4.760;2023-04-10T13:49:14;15.70;99.90
27384;DHT22;14851;51.166;4.760;2023-04-10T13:51:43;15.70;99.90
27384;DHT22;14851;51.166;4.760;2023-04-10T13:54:09;15.70;99.90
27384;DHT22;14851;51.166;4.760;2023-04-10T13:56:35;15.70;99.90
27384;DHT22;14851;51.166;4.760;2023-04-10T13:59:03;15.60;99.90
27384;DHT22;14851;51.166;4.760;2023-04-10T14:01:29;15.60;99.90
27384;DHT22;14851;51.166;4.760;2023-04-10T14:03:55;15.60;99.90
27384;DHT22;14851;51.166;4.760;2023-04-10T14:06:21;15.60;99.90
27384;DHT22;14851;51.166;4.760;2023-04-10T14:08:47;15.50;99.90
27384;DHT22;14851;51.166;4.760;2023-04-10T14:11:13;15.60;99.90
27384;DHT22;14851;51.166;4.760;2023-04-10T14:13:38;15.60;99.90
27384;DHT22;14851;51.166;4.760;2023-04-10T14:16:04;15.50;99.90
27384;DHT22;14851;51.166;4.760;2023-04-10T14:18:30;15.50;99.90
27384;DHT22;14851;51.166;4.760;2023-04-10T14:20:56;15.50;99.90
27384;DHT22;14851;51.166;4.760;2023-04-10T14:23:22;15.60;99.90
27384;DHT22;14851;51.166;4.760;2023-04-10T14:25:49;15.60;99.90
27384;DHT22;14851;51.166;4.760;2023-04-10T14:28:17;15.60;99.90
27384;DHT22;14851;51.166;4.760;2023-04-10T14:30:49;15.60;99.90
27384;DHT22;14851;51.166;4.760;2023-04-10T14:33:19;15.70;99.90
27384;DHT22;14851;51.166;4.760;2023-04-10T14:35:45;15.70;99.90
27384;DHT22;14851;51.166;4.760;2023-04-10T14:38:12;15.60;99.90
27384;DHT22;14851;51.166;4.760;2023-04-10T14:40:41;15.60;99.90
27384;DHT22;14851;51.166;4.760;2023-04-10T14:43:07;15.50;99.90
27384;DHT22;14851;51.166;4.760;2023-04-10T14:45:33;15.50;99.90
27384;DHT22;14851;51.166;4.760;2023-04-10T14:47:59;15.50;99.90
27384;DHT22;14851;51.166;4.760;2023-04-10T14:50:26;15.50;99.90
27384;DHT22;14851;51.166;4.760;2023-04-10T14:52:52;15.40;99.90
27384;DHT22;14851;51.166;4.760;2023-04-10T14:55:18;15.40;99.90
27384;DHT22;14851;51.166;4.760;2023-04-10T14:57:46;15.40;99.90
27384;DHT22;14851;51.166;4.760;2023-04-10T15:00:14;15.40;99.90
27384;DHT22;14851;51.166;4.760;2023-04-10T15:02:40;15.40;99.90
27384;DHT22;14851;51.166;4.760;2023-04-10T15:05:08;15.40;99.90
27384;DHT22;14851;51.166;4.760;2023-04-10T15:07:35;15.30;99.90
27384;DHT22;14851;51.166;4.760;2023-04-10T15:10:02;15.30;99.90
27384;DHT22;14851;51.166;4.760;2023-04-10T15:12:30;15.40;99.90
27384;DHT22;14851;51.166;4.760;2023-04-10T15:14:56;15.30;99.90
27384;DHT22;14851;51.166;4.760;2023-04-10T15:17:24;15.30;99.90
27384;DHT22;14851;51.166;4.760;2023-04-10T15:19:50;15.20;99.90
27384;DHT22;14851;51.166;4.760;2023-04-10T15:22:18;15.10;99.90
27384;DHT22;14851;51.166;4.760;2023-04-10T15:24:45;15.10;99.90
27384;DHT22;14851;51.166;4.760;2023-04-10T15:27:14;14.90;99.90
27384;DHT22;14851;51.166;4.760;2023-04-10T15:29:41;14.90;99.90
27384;DHT22;14851;51.166;4.760;2023-04-10T15:32:07;14.80;99.90
27384;DHT22;14851;51.166;4.760;2023-04-10T15:34:33;14.70;99.90
27384;DHT22;14851;51.166;4.760;2023-04-10T15:37:00;14.70;99.90
27384;DHT22;14851;51.166;4.760;2023-04-10T15:39:28;14.60;99.90
27384;DHT22;14851;51.166;4.760;2023-04-10T15:42:02;14.50;99.90
27384;DHT22;14851;51.166;4.760;2023-04-10T15:44:30;14.50;99.90
27384;DHT22;14851;51.166;4.760;2023-04-10T15:46:58;14.50;99.90
27384;DHT22;14851;51.166;4.760;2023-04-10T15:49:24;14.50;99.90
27384;DHT22;14851;51.166;4.760;2023-04-10T15:51:50;14.50;99.90
27384;DHT22;14851;51.166;4.760;2023-04-10T15:54:16;14.40;99.90
27384;DHT22;14851;51.166;4.760;2023-04-10T15:56:42;14.40;99.90
27384;DHT22;14851;51.166;4.760;2023-04-10T15:59:08;14.40;99.90
27384;DHT22;14851;51.166;4.760;2023-04-10T16:01:33;14.40;99.90
27384;DHT22;14851;51.166;4.760;2023-04-10T16:03:59;14.40;99.90
27384;DHT22;14851;51.166;4.760;2023-04-10T16:06:25;14.30;99.90
27384;DHT22;14851;51.166;4.760;2023-04-10T16:08:54;14.30;99.90
27384;DHT22;14851;51.166;4.760;2023-04-10T16:11:20;14.30;99.90
27384;DHT22;14851;51.166;4.760;2023-04-10T16:13:46;14.20;99.90
27384;DHT22;14851;51.166;4.760;2023-04-10T16:16:16;14.20;99.90
27384;DHT22;14851;51.166;4.760;2023-04-10T16:18:43;14.20;99.90
27384;DHT22;14851;51.166;4.760;2023-04-10T16:21:11;14.10;99.90
27384;DHT22;14851;51.166;4.760;2023-04-10T16:23:41;14.10;99.90
27384;DHT22;14851;51.166;4.760;2023-04-10T16:26:07;13.90;99.90
27384;DHT22;14851;51.166;4.760;2023-04-10T16:28:32;13.90;99.90
27384;DHT22;14851;51.166;4.760;2023-04-10T16:30:58;13.90;99.90
27384;DHT22;14851;51.166;4.760;2023-04-10T16:33:25;13.80;99.90
27384;DHT22;14851;51.166;4.760;2023-04-10T16:35:51;13.70;99.90
27384;DHT22;14851;51.166;4.760;2023-04-10T16:38:18;13.70;99.90
27384;DHT22;14851;51.166;4.760;2023-04-10T16:40:44;13.60;99.90
27384;DHT22;14851;51.166;4.760;2023-04-10T16:43:10;13.60;99.90
27384;DHT22;14851;51.166;4.760;2023-04-10T16:45:37;13.40;99.90
27384;DHT22;14851;51.166;4.760;2023-04-10T16:48:04;13.40;99.90